sensor_id;sensor_type;location;lat;lon;timestamp;P1;durP1;ratioP1;P2;durP2;ratioP2
11054;SDS011;5580;50.106;8.702;2023-07-31T00:01:45;7.80;;;3.57;;
11054;SDS011;5580;50.106;8.702;2023-07-31T00:04:11;9.50;;;3.90;;
11054;SDS011;5580;50.106;8.702;2023-07-31T00:06:36;6.20;;;3.43;;
11054;SDS011;5580;50.106;8.702;2023-07-31T00:09:02;7.53;;;3.27;;
11054;SDS011;5580;50.106;8.702;2023-07-31T00:11:27;8.97;;;3.50;;
11054;SDS011;5580;50.106;8.702;2023-07-31T00:13:53;7.60;;;3.67;;
11054;SDS011;5580;50.106;8.702;2023-07-31T00:16:19;7.70;;;3.50;;
11054;SDS011;5580;50.106;8.702;2023-07-31T00:18:44;7.97;;;3.70;;
11054;SDS011;5580;50.106;8.702;2023-07-31T00:21:10;7.63;;;3.30;;
11054;SDS011;5580;50.106;8.702;2023-07-31T00:23:35;7.93;;;3.73;;
11054;SDS011;5580;50.106;8.702;2023-07-31T00:26:01;8.80;;;3.60;;
11054;SDS011;5580;50.106;8.702;2023-07-31T00:28:27;6.70;;;3.70;;
11054;SDS011;5580;50.106;8.702;2023-07-31T00:30:53;11.53;;;3.60;;
11054;SDS011;5580;50.106;8.702;2023-07-31T00:33:19;8.20;;;3.77;;
11054;SDS011;5580;50.106;8.702;2023-07-31T00:35:44;7.63;;;4.10;;
11054;SDS011;5580;50.106;8.702;2023-07-31T00:38:10;6.93;;;3.73;;
11054;SDS011;5580;50.106;8.702;2023-07-31T00:40:36;8.60;;;3.90;;
11054;SDS011;5580;50.106;8.702;2023-07-31T00:43:02;7.20;;;3.70;;
11054;SDS011;5580;50.106;8.702;2023-07-31T00:45:28;6.20;;;3.40;;
11054;SDS011;5580;50.106;8.702;2023-07-31T00:47:54;8.20;;;3.70;;
11054;SDS011;5580;50.106;8.702;2023-07-31T00:50:21;7.80;;;3.57;;
11054;SDS011;5580;50.106;8.702;2023-07-31T00:52:49;10.67;;;4.10;;
11054;SDS011;5580;50.106;8.702;2023-07-31T00:55:14;9.67;;;3.67;;
11054;SDS011;5580;50.106;8.702;2023-07-31T00:57:41;9.20;;;3.70;;
11054;SDS011;5580;50.106;8.702;2023-07-31T01:00:07;7.07;;;3.87;;
11054;SDS011;5580;50.106;8.702;2023-07-31T01:02:34;8.70;;;4.17;;
11054;SDS011;5580;50.106;8.702;2023-07-31T01:05:01;8.87;;;3.80;;
11054;SDS011;5580;50.106;8.702;2023-07-31T01:07:30;7.20;;;3.90;;
11054;SDS011;5580;50.106;8.702;2023-07-31T01:10:09;7.57;;;3.43;;
11054;SDS011;5580;50.106;8.702;2023-07-31T01:12:41;9.17;;;4.20;;
11054;SDS011;5580;50.106;8.702;2023-07-31T01:15:08;8.37;;;3.57;;
11054;SDS011;5580;50.106;8.702;2023-07-31T01:17:39;9.63;;;3.70;;
11054;SDS011;5580;50.106;8.702;2023-07-31T01:20:11;10.07;;;3.60;;
11054;SDS011;5580;50.106;8.702;2023-07-31T01:26:10;6.73;;;3.90;;
11054;SDS011;5580;50.106;8.702;2023-07-31T01:28:55;9.13;;;3.70;;
11054;SDS011;5580;50.106;8.702;2023-07-31T01:31:26;5.43;;;3.67;;
11054;SDS011;5580;50.106;8.702;2023-07-31T01:33:56;7.33;;;3.53;;
11054;SDS011;5580;50.106;8.702;2023-07-31T01:36:24;9.03;;;3.87;;
11054;SDS011;5580;50.106;8.702;2023-07-31T01:38:50;6.67;;;3.90;;
11054;SDS011;5580;50.106;8.702;2023-07-31T01:41:17;8.80;;;3.93;;
11054;SDS011;5580;50.106;8.702;2023-07-31T01:43:43;8.83;;;3.93;;
11054;SDS011;5580;50.106;8.702;2023-07-31T01:46:09;6.50;;;3.83;;
11054;SDS011;5580;50.106;8.702;2023-07-31T01:48:34;6.07;;;3.50;;
11054;SDS011;5580;50.106;8.702;2023-07-31T01:51:02;9.40;;;3.80;;
11054;SDS011;5580;50.106;8.702;2023-07-31T01:53:28;9.33;;;3.80;;
11054;SDS011;5580;50.106;8.702;2023-07-31T01:55:54;8.43;;;4.00;;
11054;SDS011;5580;50.106;8.702;2023-07-31T01:58:20;6.77;;;3.50;;
11054;SDS011;5580;50.106;8.702;2023-07-31T02:00:46;9.53;;;3.93;;
11054;SDS011;5580;50.106;8.702;2023-07-31T02:03:11;7.20;;;3.50;;
11054;SDS011;5580;50.106;8.702;2023-07-31T02:05:43;7.67;;;3.90;;
11054;SDS011;5580;50.106;8.702;2023-07-31T02:08:09;10.00;;;4.17;;
11054;SDS011;5580;50.106;8.702;2023-07-31T02:10:35;9.47;;;4.20;;
11054;SDS011;5580;50.106;8.702;2023-07-31T02:13:00;8.80;;;4.00;;
11054;SDS011;5580;50.106;8.702;2023-07-31T02:15:28;8.90;;;3.93;;
11054;SDS011;5580;50.106;8.702;2023-07-31T02:17:57;8.80;;;4.00;;
11054;SDS011;5580;50.106;8.702;2023-07-31T02:20:22;11.10;;;4.00;;
11054;SDS011;5580;50.106;8.702;2023-07-31T02:22:48;9.40;;;3.73;;
11054;SDS011;5580;50.106;8.702;2023-07-31T02:25:13;8.67;;;4.10;;
11054;SDS011;5580;50.106;8.702;2023-07-31T02:27:39;8.10;;;4.10;;
11054;SDS011;5580;50.106;8.702;2023-07-31T02:30:05;7.53;;;4.07;;
11054;SDS011;5580;50.106;8.702;2023-07-31T02:32:31;10.63;;;4.10;;
11054;SDS011;5580;50.106;8.702;2023-07-31T02:34:57;7.23;;;3.90;;
11054;SDS011;5580;50.106;8.702;2023-07-31T02:37:22;10.20;;;3.90;;
11054;SDS011;5580;50.106;8.702;2023-07-31T02:39:48;9.57;;;4.00;;
11054;SDS011;5580;50.106;8.702;2023-07-31T02:42:14;9.97;;;3.93;;
11054;SDS011;5580;50.106;8.702;2023-07-31T02:44:40;6.87;;;3.73;;
11054;SDS011;5580;50.106;8.702;2023-07-31T02:47:05;10.20;;;4.00;;
11054;SDS011;5580;50.106;8.702;2023-07-31T02:49:31;9.33;;;4.13;;
11054;SDS011;5580;50.106;8.702;2023-07-31T02:51:57;11.83;;;4.57;;
11054;SDS011;5580;50.106;8.702;2023-07-31T02:54:22;10.30;;;4.00;;
11054;SDS011;5580;50.106;8.702;2023-07-31T02:56:48;9.63;;;4.00;;
11054;SDS011;5580;50.106;8.702;2023-07-31T02:59:14;5.67;;;3.90;;
11054;SDS011;5580;50.106;8.702;2023-07-31T03:01:40;8.93;;;4.40;;
11054;SDS011;5580;50.106;8.702;2023-07-31T03:04:05;10.50;;;4.13;;
11054;SDS011;5580;50.106;8.702;2023-07-31T03:06:33;8.13;;;4.03;;
11054;SDS011;5580;50.106;8.702;2023-07-31T03:08:59;8.50;;;4.00;;
11054;SDS011;5580;50.106;8.702;2023-07-31T03:11:24;7.70;;;4.00;;
11054;SDS011;5580;50.106;8.702;2023-07-31T03:13:50;10.97;;;4.13;;
11054;SDS011;5580;50.106;8.702;2023-07-31T03:16:15;8.87;;;4.10;;
11054;SDS011;5580;50.106;8.702;2023-07-31T03:18:41;8.27;;;4.10;;
11054;SDS011;5580;50.106;8.702;2023-07-31T03:21:07;8.67;;;4.13;;
11054;SDS011;5580;50.106;8.702;2023-07-31T03:23:32;9.47;;;4.20;;
11054;SDS011;5580;50.106;8.702;2023-07-31T03:26:02;8.73;;;4.17;;
11054;SDS011;5580;50.106;8.702;2023-07-31T03:28:28;9.80;;;4.40;;
11054;SDS011;5580;50.106;8.702;2023-07-31T03:30:54;9.73;;;4.40;;
11054;SDS011;5580;50.106;8.702;2023-07-31T03:33:20;9.10;;;4.30;;
11054;SDS011;5580;50.106;8.702;2023-07-31T03:35:46;9.33;;;4.00;;
11054;SDS011;5580;50.106;8.702;2023-07-31T03:38:11;6.63;;;3.90;;
11054;SDS011;5580;50.106;8.702;2023-07-31T03:40:37;8.03;;;4.10;;
11054;SDS011;5580;50.106;8.702;2023-07-31T03:43:02;7.60;;;4.03;;
11054;SDS011;5580;50.106;8.702;2023-07-31T03:45:28;9.63;;;4.20;;
11054;SDS011;5580;50.106;8.702;2023-07-31T03:47:54;8.50;;;4.40;;
11054;SDS011;5580;50.106;8.702;2023-07-31T03:50:19;12.53;;;4.40;;
11054;SDS011;5580;50.106;8.702;2023-07-31T03:52:45;9.07;;;4.23;;
11054;SDS011;5580;50.106;8.702;2023-07-31T03:55:12;9.23;;;4.70;;
11054;SDS011;5580;50.106;8.702;2023-07-31T03:57:37;8.70;;;4.33;;
11054;SDS011;5580;50.106;8.702;2023-07-31T04:00:03;11.43;;;4.83;;
11054;SDS011;5580;50.106;8.702;2023-07-31T04:02:29;10.80;;;4.70;;
11054;SDS011;5580;50.106;8.702;2023-07-31T04:04:55;9.77;;;4.10;;
11054;SDS011;5580;50.106;8.702;2023-07-31T04:07:20;8.63;;;4.13;;
11054;SDS011;5580;50.106;8.702;2023-07-31T04:09:46;10.07;;;4.40;;
11054;SDS011;5580;50.106;8.702;2023-07-31T04:12:11;10.30;;;4.60;;
11054;SDS011;5580;50.106;8.702;2023-07-31T04:14:37;12.33;;;4.70;;
11054;SDS011;5580;50.106;8.702;2023-07-31T04:17:03;8.97;;;4.50;;
11054;SDS011;5580;50.106;8.702;2023-07-31T04:19:28;10.03;;;4.63;;
11054;SDS011;5580;50.106;8.702;2023-07-31T04:21:54;8.60;;;4.60;;
11054;SDS011;5580;50.106;8.702;2023-07-31T04:24:19;9.70;;;4.60;;
11054;SDS011;5580;50.106;8.702;2023-07-31T04:26:49;7.67;;;4.30;;
11054;SDS011;5580;50.106;8.702;2023-07-31T04:29:16;11.40;;;4.47;;
11054;SDS011;5580;50.106;8.702;2023-07-31T04:31:41;11.20;;;4.30;;
11054;SDS011;5580;50.106;8.702;2023-07-31T04:34:07;9.53;;;4.40;;
11054;SDS011;5580;50.106;8.702;2023-07-31T04:36:33;11.57;;;4.70;;
11054;SDS011;5580;50.106;8.702;2023-07-31T04:38:59;9.70;;;4.47;;
11054;SDS011;5580;50.106;8.702;2023-07-31T04:41:25;11.00;;;4.73;;
11054;SDS011;5580;50.106;8.702;2023-07-31T04:43:50;10.00;;;4.37;;
11054;SDS011;5580;50.106;8.702;2023-07-31T04:46:16;11.57;;;4.43;;
11054;SDS011;5580;50.106;8.702;2023-07-31T04:48:42;10.10;;;4.50;;
11054;SDS011;5580;50.106;8.702;2023-07-31T04:51:07;9.37;;;4.47;;
11054;SDS011;5580;50.106;8.702;2023-07-31T04:53:34;9.97;;;4.70;;
11054;SDS011;5580;50.106;8.702;2023-07-31T04:56:00;9.93;;;4.70;;
11054;SDS011;5580;50.106;8.702;2023-07-31T04:58:26;8.10;;;4.70;;
11054;SDS011;5580;50.106;8.702;2023-07-31T05:00:51;9.90;;;4.50;;
11054;SDS011;5580;50.106;8.702;2023-07-31T05:03:17;9.00;;;4.20;;
11054;SDS011;5580;50.106;8.702;2023-07-31T05:05:42;11.93;;;4.77;;
11054;SDS011;5580;50.106;8.702;2023-07-31T05:08:08;11.00;;;4.60;;
11054;SDS011;5580;50.106;8.702;2023-07-31T05:10:33;7.20;;;4.63;;
11054;SDS011;5580;50.106;8.702;2023-07-31T05:12:59;9.63;;;4.57;;
11054;SDS011;5580;50.106;8.702;2023-07-31T05:15:25;9.30;;;4.30;;
11054;SDS011;5580;50.106;8.702;2023-07-31T05:17:51;10.97;;;4.60;;
11054;SDS011;5580;50.106;8.702;2023-07-31T05:20:17;8.70;;;4.67;;
11054;SDS011;5580;50.106;8.702;2023-07-31T05:22:42;9.37;;;4.40;;
11054;SDS011;5580;50.106;8.702;2023-07-31T05:25:08;7.70;;;4.03;;
11054;SDS011;5580;50.106;8.702;2023-07-31T05:27:34;10.70;;;4.73;;
11054;SDS011;5580;50.106;8.702;2023-07-31T05:29:59;11.30;;;4.57;;
11054;SDS011;5580;50.106;8.702;2023-07-31T05:32:25;11.53;;;4.80;;
11054;SDS011;5580;50.106;8.702;2023-07-31T05:34:51;8.83;;;4.77;;
11054;SDS011;5580;50.106;8.702;2023-07-31T05:37:17;9.70;;;4.53;;
11054;SDS011;5580;50.106;8.702;2023-07-31T05:39:43;7.87;;;4.63;;
11054;SDS011;5580;50.106;8.702;2023-07-31T05:42:08;12.03;;;4.83;;
11054;SDS011;5580;50.106;8.702;2023-07-31T05:44:34;9.60;;;4.37;;
11054;SDS011;5580;50.106;8.702;2023-07-31T05:47:00;10.03;;;4.13;;
11054;SDS011;5580;50.106;8.702;2023-07-31T05:49:25;10.17;;;4.53;;
11054;SDS011;5580;50.106;8.702;2023-07-31T05:51:51;10.43;;;4.60;;
11054;SDS011;5580;50.106;8.702;2023-07-31T05:54:16;10.40;;;5.10;;
11054;SDS011;5580;50.106;8.702;2023-07-31T05:56:42;9.87;;;4.43;;
11054;SDS011;5580;50.106;8.702;2023-07-31T05:59:08;9.13;;;4.47;;
11054;SDS011;5580;50.106;8.702;2023-07-31T06:01:35;10.90;;;4.60;;
11054;SDS011;5580;50.106;8.702;2023-07-31T06:04:00;11.03;;;4.63;;
11054;SDS011;5580;50.106;8.702;2023-07-31T06:06:27;11.87;;;4.50;;
11054;SDS011;5580;50.106;8.702;2023-07-31T06:08:53;7.97;;;4.43;;
11054;SDS011;5580;50.106;8.702;2023-07-31T06:11:19;9.30;;;4.53;;
11054;SDS011;5580;50.106;8.702;2023-07-31T06:13:45;10.43;;;4.50;;
11054;SDS011;5580;50.106;8.702;2023-07-31T06:16:12;10.90;;;4.40;;
11054;SDS011;5580;50.106;8.702;2023-07-31T06:18:38;11.43;;;4.60;;
11054;SDS011;5580;50.106;8.702;2023-07-31T06:21:04;13.50;;;4.50;;
11054;SDS011;5580;50.106;8.702;2023-07-31T06:23:30;13.23;;;4.47;;
11054;SDS011;5580;50.106;8.702;2023-07-31T06:25:56;11.03;;;4.70;;
11054;SDS011;5580;50.106;8.702;2023-07-31T06:28:23;10.40;;;4.47;;
11054;SDS011;5580;50.106;8.702;2023-07-31T06:30:55;10.13;;;4.40;;
11054;SDS011;5580;50.106;8.702;2023-07-31T06:33:21;13.47;;;4.80;;
11054;SDS011;5580;50.106;8.702;2023-07-31T06:35:46;11.73;;;4.73;;
11054;SDS011;5580;50.106;8.702;2023-07-31T06:38:12;10.20;;;4.37;;
11054;SDS011;5580;50.106;8.702;2023-07-31T06:40:38;8.47;;;4.33;;
11054;SDS011;5580;50.106;8.702;2023-07-31T06:43:03;10.87;;;4.90;;
11054;SDS011;5580;50.106;8.702;2023-07-31T06:45:36;7.80;;;4.33;;
11054;SDS011;5580;50.106;8.702;2023-07-31T06:48:02;9.03;;;4.80;;
11054;SDS011;5580;50.106;8.702;2023-07-31T06:50:29;8.33;;;4.50;;
11054;SDS011;5580;50.106;8.702;2023-07-31T06:52:55;10.37;;;4.70;;
11054;SDS011;5580;50.106;8.702;2023-07-31T06:55:20;12.87;;;4.50;;
11054;SDS011;5580;50.106;8.702;2023-07-31T06:57:48;11.13;;;4.60;;
11054;SDS011;5580;50.106;8.702;2023-07-31T07:00:14;6.90;;;4.20;;
11054;SDS011;5580;50.106;8.702;2023-07-31T07:02:41;13.30;;;4.83;;
11054;SDS011;5580;50.106;8.702;2023-07-31T07:05:07;10.17;;;4.60;;
11054;SDS011;5580;50.106;8.702;2023-07-31T07:07:33;10.57;;;4.60;;
11054;SDS011;5580;50.106;8.702;2023-07-31T07:09:59;11.03;;;4.43;;
11054;SDS011;5580;50.106;8.702;2023-07-31T07:12:25;8.77;;;4.27;;
11054;SDS011;5580;50.106;8.702;2023-07-31T07:14:51;12.43;;;4.70;;
11054;SDS011;5580;50.106;8.702;2023-07-31T07:17:18;10.63;;;4.60;;
11054;SDS011;5580;50.106;8.702;2023-07-31T07:19:44;13.00;;;5.00;;
11054;SDS011;5580;50.106;8.702;2023-07-31T07:22:10;11.40;;;4.80;;
11054;SDS011;5580;50.106;8.702;2023-07-31T07:24:36;10.23;;;4.60;;
11054;SDS011;5580;50.106;8.702;2023-07-31T07:27:02;10.13;;;4.83;;
11054;SDS011;5580;50.106;8.702;2023-07-31T07:29:28;12.67;;;4.73;;
11054;SDS011;5580;50.106;8.702;2023-07-31T07:31:54;8.67;;;4.10;;
11054;SDS011;5580;50.106;8.702;2023-07-31T07:34:19;10.30;;;4.50;;
11054;SDS011;5580;50.106;8.702;2023-07-31T07:36:49;11.00;;;4.73;;
11054;SDS011;5580;50.106;8.702;2023-07-31T07:39:14;7.47;;;4.20;;
11054;SDS011;5580;50.106;8.702;2023-07-31T07:41:40;9.63;;;4.40;;
11054;SDS011;5580;50.106;8.702;2023-07-31T07:44:05;11.50;;;4.90;;
11054;SDS011;5580;50.106;8.702;2023-07-31T07:46:32;10.53;;;4.53;;
11054;SDS011;5580;50.106;8.702;2023-07-31T07:48:58;10.13;;;4.37;;
11054;SDS011;5580;50.106;8.702;2023-07-31T07:51:23;12.83;;;4.63;;
11054;SDS011;5580;50.106;8.702;2023-07-31T07:53:49;11.00;;;4.77;;
11054;SDS011;5580;50.106;8.702;2023-07-31T07:56:14;9.90;;;4.63;;
11054;SDS011;5580;50.106;8.702;2023-07-31T07:58:40;9.60;;;4.40;;
11054;SDS011;5580;50.106;8.702;2023-07-31T08:01:05;10.87;;;4.50;;
11054;SDS011;5580;50.106;8.702;2023-07-31T08:03:31;8.57;;;4.77;;
11054;SDS011;5580;50.106;8.702;2023-07-31T08:06:00;10.57;;;4.30;;
11054;SDS011;5580;50.106;8.702;2023-07-31T08:08:26;9.43;;;4.30;;
11054;SDS011;5580;50.106;8.702;2023-07-31T08:10:53;11.17;;;4.83;;
11054;SDS011;5580;50.106;8.702;2023-07-31T08:13:18;8.37;;;4.40;;
11054;SDS011;5580;50.106;8.702;2023-07-31T08:15:44;10.27;;;4.80;;
11054;SDS011;5580;50.106;8.702;2023-07-31T08:18:10;9.47;;;4.63;;
11054;SDS011;5580;50.106;8.702;2023-07-31T08:20:36;10.10;;;4.77;;
11054;SDS011;5580;50.106;8.702;2023-07-31T08:23:02;8.63;;;4.40;;
11054;SDS011;5580;50.106;8.702;2023-07-31T08:25:28;11.60;;;4.47;;
11054;SDS011;5580;50.106;8.702;2023-07-31T08:27:54;10.97;;;4.87;;
11054;SDS011;5580;50.106;8.702;2023-07-31T08:30:19;10.17;;;4.37;;
11054;SDS011;5580;50.106;8.702;2023-07-31T08:32:45;9.67;;;4.43;;
11054;SDS011;5580;50.106;8.702;2023-07-31T08:35:10;10.23;;;4.93;;
11054;SDS011;5580;50.106;8.702;2023-07-31T08:37:37;11.47;;;4.60;;
11054;SDS011;5580;50.106;8.702;2023-07-31T08:40:03;10.13;;;4.60;;
11054;SDS011;5580;50.106;8.702;2023-07-31T08:42:30;11.40;;;4.53;;
11054;SDS011;5580;50.106;8.702;2023-07-31T08:44:56;9.50;;;4.60;;
11054;SDS011;5580;50.106;8.702;2023-07-31T08:47:21;6.50;;;4.23;;
11054;SDS011;5580;50.106;8.702;2023-07-31T08:49:48;7.53;;;4.10;;
11054;SDS011;5580;50.106;8.702;2023-07-31T08:52:15;10.47;;;4.57;;
11054;SDS011;5580;50.106;8.702;2023-07-31T08:54:41;10.00;;;4.47;;
11054;SDS011;5580;50.106;8.702;2023-07-31T08:57:06;10.40;;;4.23;;
11054;SDS011;5580;50.106;8.702;2023-07-31T08:59:33;12.00;;;4.57;;
11054;SDS011;5580;50.106;8.702;2023-07-31T09:02:07;7.63;;;4.30;;
11054;SDS011;5580;50.106;8.702;2023-07-31T09:04:33;8.77;;;4.60;;
11054;SDS011;5580;50.106;8.702;2023-07-31T09:07:00;11.20;;;4.50;;
11054;SDS011;5580;50.106;8.702;2023-07-31T09:09:29;13.17;;;4.77;;
11054;SDS011;5580;50.106;8.702;2023-07-31T09:11:55;10.20;;;4.23;;
11054;SDS011;5580;50.106;8.702;2023-07-31T09:14:22;9.23;;;4.60;;
11054;SDS011;5580;50.106;8.702;2023-07-31T09:19:27;9.53;;;4.33;;
11054;SDS011;5580;50.106;8.702;2023-07-31T09:22:02;8.23;;;4.40;;
11054;SDS011;5580;50.106;8.702;2023-07-31T09:24:28;10.43;;;4.83;;
11054;SDS011;5580;50.106;8.702;2023-07-31T09:26:55;11.50;;;4.30;;
11054;SDS011;5580;50.106;8.702;2023-07-31T09:29:23;11.70;;;4.63;;
11054;SDS011;5580;50.106;8.702;2023-07-31T09:31:50;8.33;;;4.23;;
11054;SDS011;5580;50.106;8.702;2023-07-31T09:34:16;10.17;;;4.33;;
11054;SDS011;5580;50.106;8.702;2023-07-31T09:39:18;9.70;;;4.57;;
11054;SDS011;5580;50.106;8.702;2023-07-31T09:41:46;6.73;;;4.20;;
11054;SDS011;5580;50.106;8.702;2023-07-31T09:44:13;11.63;;;4.57;;
11054;SDS011;5580;50.106;8.702;2023-07-31T09:46:38;8.10;;;4.53;;
11054;SDS011;5580;50.106;8.702;2023-07-31T09:51:34;8.70;;;4.43;;
11054;SDS011;5580;50.106;8.702;2023-07-31T09:54:03;8.97;;;4.40;;
11054;SDS011;5580;50.106;8.702;2023-07-31T09:56:43;9.83;;;4.80;;
11054;SDS011;5580;50.106;8.702;2023-07-31T09:59:11;8.80;;;4.60;;
11054;SDS011;5580;50.106;8.702;2023-07-31T10:01:39;12.37;;;4.90;;
11054;SDS011;5580;50.106;8.702;2023-07-31T10:04:07;8.37;;;4.53;;
11054;SDS011;5580;50.106;8.702;2023-07-31T10:06:35;9.20;;;4.80;;
11054;SDS011;5580;50.106;8.702;2023-07-31T10:09:01;9.97;;;4.80;;
11054;SDS011;5580;50.106;8.702;2023-07-31T10:11:28;12.37;;;4.60;;
11054;SDS011;5580;50.106;8.702;2023-07-31T10:13:55;8.50;;;4.13;;
11054;SDS011;5580;50.106;8.702;2023-07-31T10:16:21;9.97;;;4.57;;
11054;SDS011;5580;50.106;8.702;2023-07-31T10:18:48;9.17;;;4.50;;
11054;SDS011;5580;50.106;8.702;2023-07-31T10:21:14;11.77;;;4.70;;
11054;SDS011;5580;50.106;8.702;2023-07-31T10:23:40;11.37;;;4.80;;
11054;SDS011;5580;50.106;8.702;2023-07-31T10:26:08;10.80;;;5.10;;
11054;SDS011;5580;50.106;8.702;2023-07-31T10:28:34;11.47;;;5.07;;
11054;SDS011;5580;50.106;8.702;2023-07-31T10:31:01;9.13;;;5.10;;
11054;SDS011;5580;50.106;8.702;2023-07-31T10:33:29;11.17;;;4.90;;
11054;SDS011;5580;50.106;8.702;2023-07-31T10:36:14;10.00;;;4.77;;
11054;SDS011;5580;50.106;8.702;2023-07-31T10:38:43;10.23;;;4.77;;
11054;SDS011;5580;50.106;8.702;2023-07-31T10:41:09;9.97;;;4.40;;
11054;SDS011;5580;50.106;8.702;2023-07-31T10:43:36;9.13;;;4.77;;
11054;SDS011;5580;50.106;8.702;2023-07-31T10:46:08;13.90;;;5.10;;
11054;SDS011;5580;50.106;8.702;2023-07-31T10:48:36;11.40;;;5.10;;
11054;SDS011;5580;50.106;8.702;2023-07-31T10:51:07;9.57;;;4.70;;
11054;SDS011;5580;50.106;8.702;2023-07-31T10:53:34;10.07;;;4.80;;
11054;SDS011;5580;50.106;8.702;2023-07-31T10:58:29;10.20;;;5.00;;
11054;SDS011;5580;50.106;8.702;2023-07-31T11:00:57;8.30;;;4.77;;
11054;SDS011;5580;50.106;8.702;2023-07-31T11:06:14;13.40;;;5.27;;
11054;SDS011;5580;50.106;8.702;2023-07-31T11:08:45;14.10;;;5.40;;
11054;SDS011;5580;50.106;8.702;2023-07-31T11:11:13;7.87;;;4.80;;
11054;SDS011;5580;50.106;8.702;2023-07-31T11:13:41;11.13;;;4.80;;
11054;SDS011;5580;50.106;8.702;2023-07-31T11:16:07;12.37;;;5.17;;
11054;SDS011;5580;50.106;8.702;2023-07-31T11:18:33;10.17;;;4.60;;
11054;SDS011;5580;50.106;8.702;2023-07-31T11:20:59;10.43;;;5.10;;
11054;SDS011;5580;50.106;8.702;2023-07-31T11:23:25;10.23;;;5.00;;
11054;SDS011;5580;50.106;8.702;2023-07-31T11:25:50;13.73;;;4.70;;
11054;SDS011;5580;50.106;8.702;2023-07-31T11:28:17;11.50;;;5.03;;
11054;SDS011;5580;50.106;8.702;2023-07-31T11:30:44;10.30;;;5.00;;
11054;SDS011;5580;50.106;8.702;2023-07-31T11:33:11;13.07;;;4.97;;
11054;SDS011;5580;50.106;8.702;2023-07-31T11:35:44;9.07;;;4.87;;
11054;SDS011;5580;50.106;8.702;2023-07-31T11:38:12;9.70;;;4.90;;
11054;SDS011;5580;50.106;8.702;2023-07-31T11:40:47;10.97;;;5.00;;
11054;SDS011;5580;50.106;8.702;2023-07-31T11:43:13;9.00;;;4.57;;
11054;SDS011;5580;50.106;8.702;2023-07-31T11:45:42;10.73;;;4.70;;
11054;SDS011;5580;50.106;8.702;2023-07-31T11:48:18;10.43;;;4.87;;
11054;SDS011;5580;50.106;8.702;2023-07-31T11:50:52;9.60;;;4.80;;
11054;SDS011;5580;50.106;8.702;2023-07-31T11:53:22;8.87;;;4.90;;
11054;SDS011;5580;50.106;8.702;2023-07-31T11:56:07;12.47;;;5.20;;
11054;SDS011;5580;50.106;8.702;2023-07-31T11:58:36;9.47;;;4.60;;
11054;SDS011;5580;50.106;8.702;2023-07-31T12:01:03;7.60;;;4.70;;
11054;SDS011;5580;50.106;8.702;2023-07-31T12:03:29;10.30;;;5.20;;
11054;SDS011;5580;50.106;8.702;2023-07-31T12:05:57;15.77;;;5.13;;
11054;SDS011;5580;50.106;8.702;2023-07-31T12:08:24;10.77;;;4.40;;
11054;SDS011;5580;50.106;8.702;2023-07-31T12:10:50;10.83;;;4.90;;
11054;SDS011;5580;50.106;8.702;2023-07-31T12:13:20;10.20;;;4.80;;
11054;SDS011;5580;50.106;8.702;2023-07-31T12:15:47;12.83;;;4.80;;
11054;SDS011;5580;50.106;8.702;2023-07-31T12:18:14;9.30;;;4.83;;
11054;SDS011;5580;50.106;8.702;2023-07-31T12:20:48;10.20;;;5.07;;
11054;SDS011;5580;50.106;8.702;2023-07-31T12:23:19;8.57;;;4.70;;
11054;SDS011;5580;50.106;8.702;2023-07-31T12:26:06;10.30;;;4.47;;
11054;SDS011;5580;50.106;8.702;2023-07-31T12:28:46;13.07;;;5.27;;
11054;SDS011;5580;50.106;8.702;2023-07-31T12:31:17;11.00;;;5.10;;
11054;SDS011;5580;50.106;8.702;2023-07-31T12:33:44;9.73;;;4.57;;
11054;SDS011;5580;50.106;8.702;2023-07-31T12:36:12;10.37;;;4.90;;
11054;SDS011;5580;50.106;8.702;2023-07-31T12:38:39;12.07;;;4.60;;
11054;SDS011;5580;50.106;8.702;2023-07-31T12:41:05;10.33;;;4.70;;
11054;SDS011;5580;50.106;8.702;2023-07-31T12:43:34;11.17;;;5.03;;
11054;SDS011;5580;50.106;8.702;2023-07-31T12:46:00;9.07;;;4.87;;
11054;SDS011;5580;50.106;8.702;2023-07-31T12:48:26;8.20;;;4.63;;
11054;SDS011;5580;50.106;8.702;2023-07-31T12:50:51;6.90;;;4.60;;
11054;SDS011;5580;50.106;8.702;2023-07-31T12:53:17;7.87;;;4.60;;
11054;SDS011;5580;50.106;8.702;2023-07-31T12:55:42;10.00;;;4.70;;
11054;SDS011;5580;50.106;8.702;2023-07-31T12:58:08;10.23;;;4.63;;
11054;SDS011;5580;50.106;8.702;2023-07-31T13:00:33;10.77;;;4.67;;
11054;SDS011;5580;50.106;8.702;2023-07-31T13:02:59;12.10;;;5.23;;
11054;SDS011;5580;50.106;8.702;2023-07-31T13:05:26;9.10;;;4.70;;
11054;SDS011;5580;50.106;8.702;2023-07-31T13:07:52;6.97;;;4.67;;
11054;SDS011;5580;50.106;8.702;2023-07-31T13:10:18;11.50;;;5.33;;
11054;SDS011;5580;50.106;8.702;2023-07-31T13:12:44;10.37;;;5.00;;
11054;SDS011;5580;50.106;8.702;2023-07-31T13:15:09;10.97;;;5.07;;
11054;SDS011;5580;50.106;8.702;2023-07-31T13:17:35;10.17;;;4.90;;
11054;SDS011;5580;50.106;8.702;2023-07-31T13:20:01;10.77;;;4.83;;
11054;SDS011;5580;50.106;8.702;2023-07-31T13:22:28;8.27;;;4.43;;
11054;SDS011;5580;50.106;8.702;2023-07-31T13:24:54;12.13;;;5.10;;
11054;SDS011;5580;50.106;8.702;2023-07-31T13:27:20;13.17;;;5.33;;
11054;SDS011;5580;50.106;8.702;2023-07-31T13:29:47;10.13;;;4.77;;
11054;SDS011;5580;50.106;8.702;2023-07-31T13:32:13;10.73;;;4.80;;
11054;SDS011;5580;50.106;8.702;2023-07-31T13:34:39;11.00;;;4.90;;
11054;SDS011;5580;50.106;8.702;2023-07-31T13:37:04;10.13;;;4.63;;
11054;SDS011;5580;50.106;8.702;2023-07-31T13:39:31;9.70;;;4.30;;
11054;SDS011;5580;50.106;8.702;2023-07-31T13:41:58;9.63;;;4.80;;
11054;SDS011;5580;50.106;8.702;2023-07-31T13:44:23;9.67;;;4.73;;
11054;SDS011;5580;50.106;8.702;2023-07-31T13:46:49;9.07;;;4.60;;
11054;SDS011;5580;50.106;8.702;2023-07-31T13:49:14;9.80;;;4.43;;
11054;SDS011;5580;50.106;8.702;2023-07-31T13:51:40;9.00;;;4.80;;
11054;SDS011;5580;50.106;8.702;2023-07-31T13:54:06;8.97;;;4.70;;
11054;SDS011;5580;50.106;8.702;2023-07-31T13:56:32;8.77;;;4.60;;
11054;SDS011;5580;50.106;8.702;2023-07-31T13:58:57;8.43;;;4.50;;
11054;SDS011;5580;50.106;8.702;2023-07-31T14:01:23;7.53;;;4.30;;
11054;SDS011;5580;50.106;8.702;2023-07-31T14:03:49;8.70;;;4.60;;
11054;SDS011;5580;50.106;8.702;2023-07-31T14:06:14;9.70;;;4.67;;
11054;SDS011;5580;50.106;8.702;2023-07-31T14:08:40;9.27;;;4.43;;
11054;SDS011;5580;50.106;8.702;2023-07-31T14:11:05;9.67;;;4.90;;
11054;SDS011;5580;50.106;8.702;2023-07-31T14:13:31;7.10;;;4.53;;
11054;SDS011;5580;50.106;8.702;2023-07-31T14:15:57;9.80;;;4.73;;
11054;SDS011;5580;50.106;8.702;2023-07-31T14:18:22;7.93;;;4.60;;
11054;SDS011;5580;50.106;8.702;2023-07-31T14:20:48;8.10;;;4.67;;
11054;SDS011;5580;50.106;8.702;2023-07-31T14:23:13;10.67;;;4.73;;
11054;SDS011;5580;50.106;8.702;2023-07-31T14:25:40;10.13;;;4.73;;
11054;SDS011;5580;50.106;8.702;2023-07-31T14:28:06;7.73;;;4.50;;
11054;SDS011;5580;50.106;8.702;2023-07-31T14:30:31;9.53;;;4.50;;
11054;SDS011;5580;50.106;8.702;2023-07-31T14:32:57;7.73;;;4.50;;
11054;SDS011;5580;50.106;8.702;2023-07-31T14:35:22;8.57;;;4.60;;
11054;SDS011;5580;50.106;8.702;2023-07-31T14:37:48;10.67;;;5.00;;
11054;SDS011;5580;50.106;8.702;2023-07-31T14:40:14;10.27;;;4.60;;
11054;SDS011;5580;50.106;8.702;2023-07-31T14:42:39;9.83;;;5.00;;
11054;SDS011;5580;50.106;8.702;2023-07-31T14:45:05;7.27;;;4.53;;
11054;SDS011;5580;50.106;8.702;2023-07-31T14:47:32;8.23;;;4.57;;
11054;SDS011;5580;50.106;8.702;2023-07-31T14:49:58;8.37;;;4.57;;
11054;SDS011;5580;50.106;8.702;2023-07-31T14:52:24;10.37;;;4.80;;
11054;SDS011;5580;50.106;8.702;2023-07-31T14:54:50;9.03;;;4.87;;
11054;SDS011;5580;50.106;8.702;2023-07-31T14:57:16;10.80;;;4.93;;
11054;SDS011;5580;50.106;8.702;2023-07-31T14:59:41;9.87;;;4.80;;
11054;SDS011;5580;50.106;8.702;2023-07-31T15:02:08;7.87;;;4.50;;
11054;SDS011;5580;50.106;8.702;2023-07-31T15:04:34;9.40;;;4.73;;
11054;SDS011;5580;50.106;8.702;2023-07-31T15:07:00;10.50;;;4.93;;
11054;SDS011;5580;50.106;8.702;2023-07-31T15:09:25;7.97;;;4.83;;